Circle Line Xii — WM8392 — position and weather

sailwx.info

Track history (hours):
 
Tides and Currents Weather Stations Pressure Air Temp Water Temp Dewpoint Dewpoint Depression Visibility Wind Speed Wind Dir Waves Ship Positions

Circle Line Xii

Owner: CIRCLE LINE SIGHTSEEING YACHTS, NEW YORK, NY. More information available from US FCC via Universal Licensing System and Coast Guard Vessel Documentation Center.

Last reported at 2015-Jul-30 19:28 UTC. Time now 2015-Jul-30 20:19 UTC.
Position N 40°46' W 074°00'.

MMSI: 367032250.

Date/timePositionNaut miles runAvg speedWind from/ knotsBaromVisibWave heightAir tempDewpointWater temp
2015-Jul-30 19:28N 40°46' W 074°00'1 1.5
2015-Jul-30 18:33N 40°45' W 074°01'3 3.1
2015-Jul-30 17:32N 40°46' W 073°57'6 6.2
2015-Jul-30 16:33N 40°41' W 074°02'5 4.8
2015-Jul-30 15:33N 40°46' W 074°00'5 4.8
2015-Jul-30 14:33N 40°41' W 074°02'5 4.6
2015-Jul-30 13:33N 40°46' W 074°00'1 0.1
2015-Jul-29 21:33N 40°45' W 074°01'1 0.5
2015-Jul-29 19:32N 40°46' W 074°00'3 2.6
2015-Jul-29 18:33N 40°48' W 073°59'3 2.3
2015-Jul-29 17:22N 40°46' W 073°57'6 7.8
2015-Jul-29 16:33N 40°41' W 074°03'5 4.9
2015-Jul-29 15:32N 40°46' W 074°00'4 4.1
2015-Jul-29 14:33N 40°42' W 074°02'4 3.9
2015-Jul-29 13:32N 40°46' W 074°00'0 0.0
2015-Jul-29 12:32N 40°46' W 074°00'3 0.3
2015-Jul-29 00:33N 40°43' W 074°01'0 0.2
2015-Jul-28 23:33N 40°43' W 074°02'3 3.1
2015-Jul-28 22:33N 40°46' W 074°00'0 0.0
2015-Jul-28 21:30N 40°46' W 074°00'0 0.0
2015-Jul-28 20:33N 40°46' W 074°00'0 0.0
2015-Jul-28 19:33N 40°46' W 074°00'0 0.0
2015-Jul-28 18:33N 40°46' W 074°00'0 0.0
2015-Jul-28 17:33N 40°46' W 074°00'0 0.0
2015-Jul-28 16:33N 40°46' W 074°00'3 2.8
2015-Jul-28 15:33N 40°43' W 074°01'3 2.6
2015-Jul-28 14:31N 40°46' W 074°00'0 0.0
2015-Jul-28 13:31N 40°46' W 074°00'0 0.0
2015-Jul-28 12:31N 40°46' W 074°00'  
2015-Jul-26 01:06N 40°46' W 074°00'2 3.6
2015-Jul-26 00:33N 40°44' W 074°01'2 2.4
2015-Jul-25 23:33N 40°43' W 073°58'3 3.3
2015-Jul-25 22:32N 40°46' W 074°00'0 0.0
2015-Jul-25 21:29N 40°46' W 074°00'0 0.0
2015-Jul-25 20:32N 40°46' W 074°00'0 0.4
2015-Jul-25 19:33N 40°46' W 074°01'0 0.4
2015-Jul-25 18:32N 40°46' W 074°00'0 0.0
2015-Jul-25 17:32N 40°46' W 074°00'3 2.7
2015-Jul-25 16:34N 40°43' W 074°01'1 1.4
2015-Jul-25 15:34N 40°42' W 074°02'4 3.8
2015-Jul-25 14:31N 40°46' W 074°00'0 0.0
2015-Jul-25 13:31N 40°46' W 074°00'3 0.1
2015-Jul-24 00:33N 40°43' W 074°01'1 1.0
2015-Jul-23 23:33N 40°42' W 074°02'4 3.9
2015-Jul-23 22:33N 40°46' W 074°00'0 0.0
2015-Jul-23 21:33N 40°46' W 074°00'0 0.0
2015-Jul-23 20:33N 40°46' W 074°00'0 0.3
2015-Jul-23 19:33N 40°46' W 074°01'0 0.3
2015-Jul-23 18:33N 40°46' W 074°00'0 0.0
2015-Jul-23 17:30N 40°46' W 074°00'8 8.1
2015-Jul-23 16:34N 40°53' W 073°56'8 8.3
2015-Jul-23 15:33N 40°44' W 073°58'2 2.0
2015-Jul-23 14:31N 40°46' W 074°00'3 0.2
2015-Jul-23 00:33N 40°43' W 074°01'2 2.2
2015-Jul-22 23:33N 40°41' W 074°03'5 4.8
2015-Jul-22 22:33N 40°46' W 074°00'0 0.0
2015-Jul-22 21:33N 40°46' W 074°00'0 0.0
2015-Jul-22 20:33N 40°46' W 074°00'1 1.0
2015-Jul-22 19:33N 40°45' W 074°01'1 0.9
2015-Jul-22 18:32N 40°46' W 074°00'0 0.0
2015-Jul-22 17:32N 40°46' W 074°00'3 3.0
2015-Jul-22 16:33N 40°43' W 074°01'2 1.8
2015-Jul-22 15:34N 40°41' W 074°02'5 4.5
2015-Jul-22 14:31N 40°46' W 074°00'0 0.0
2015-Jul-22 13:31N 40°46' W 074°00'0 0.0
2015-Jul-22 12:31N 40°46' W 074°00'0 0.0
2015-Jul-22 11:31N 40°46' W 074°00'1 0.0
2015-Jul-20 21:33N 40°45' W 074°01'1 0.9
2015-Jul-20 20:31N 40°46' W 074°00'0 0.0
2015-Jul-20 19:34N 40°46' W 074°00'  
Track history (hours):
 
Tides and Currents Weather Stations Pressure Air Temp Water Temp Dewpoint Dewpoint Depression Visibility Wind Speed Wind Dir Waves Ship Positions

Circle Line Xii

Owner: CIRCLE LINE SIGHTSEEING YACHTS, NEW YORK, NY. More information available from US FCC via Universal Licensing System and Coast Guard Vessel Documentation Center.

Last reported at 2015-Jul-30 19:28 UTC. Time now 2015-Jul-30 20:19 UTC.
Position N 40°46' W 074°00'.

MMSI: 367032250.

Date/timePositionNaut miles runAvg speedWind from/ knotsBaromVisibWave heightAir tempDewpointWater temp
2015-Jul-30 19:28N 40°46' W 074°00'1 1.5
2015-Jul-30 18:33N 40°45' W 074°01'3 3.1
2015-Jul-30 17:32N 40°46' W 073°57'6 6.2
2015-Jul-30 16:33N 40°41' W 074°02'5 4.8
2015-Jul-30 15:33N 40°46' W 074°00'5 4.8
2015-Jul-30 14:33N 40°41' W 074°02'5 4.6
2015-Jul-30 13:33N 40°46' W 074°00'1 0.1
2015-Jul-29 21:33N 40°45' W 074°01'1 0.5
2015-Jul-29 19:32N 40°46' W 074°00'3 2.6
2015-Jul-29 18:33N 40°48' W 073°59'3 2.3
2015-Jul-29 17:22N 40°46' W 073°57'6 7.8
2015-Jul-29 16:33N 40°41' W 074°03'5 4.9
2015-Jul-29 15:32N 40°46' W 074°00'4 4.1
2015-Jul-29 14:33N 40°42' W 074°02'4 3.9
2015-Jul-29 13:32N 40°46' W 074°00'0 0.0
2015-Jul-29 12:32N 40°46' W 074°00'3 0.3
2015-Jul-29 00:33N 40°43' W 074°01'0 0.2
2015-Jul-28 23:33N 40°43' W 074°02'3 3.1
2015-Jul-28 22:33N 40°46' W 074°00'0 0.0
2015-Jul-28 21:30N 40°46' W 074°00'0 0.0
2015-Jul-28 20:33N 40°46' W 074°00'0 0.0
2015-Jul-28 19:33N 40°46' W 074°00'0 0.0
2015-Jul-28 18:33N 40°46' W 074°00'0 0.0
2015-Jul-28 17:33N 40°46' W 074°00'0 0.0
2015-Jul-28 16:33N 40°46' W 074°00'3 2.8
2015-Jul-28 15:33N 40°43' W 074°01'3 2.6
2015-Jul-28 14:31N 40°46' W 074°00'0 0.0
2015-Jul-28 13:31N 40°46' W 074°00'0 0.0
2015-Jul-28 12:31N 40°46' W 074°00'  
2015-Jul-26 01:06N 40°46' W 074°00'2 3.6
2015-Jul-26 00:33N 40°44' W 074°01'2 2.4
2015-Jul-25 23:33N 40°43' W 073°58'3 3.3
2015-Jul-25 22:32N 40°46' W 074°00'0 0.0
2015-Jul-25 21:29N 40°46' W 074°00'0 0.0
2015-Jul-25 20:32N 40°46' W 074°00'0 0.4
2015-Jul-25 19:33N 40°46' W 074°01'0 0.4
2015-Jul-25 18:32N 40°46' W 074°00'0 0.0
2015-Jul-25 17:32N 40°46' W 074°00'3 2.7
2015-Jul-25 16:34N 40°43' W 074°01'1 1.4
2015-Jul-25 15:34N 40°42' W 074°02'4 3.8
2015-Jul-25 14:31N 40°46' W 074°00'0 0.0
2015-Jul-25 13:31N 40°46' W 074°00'3 0.1
2015-Jul-24 00:33N 40°43' W 074°01'1 1.0
2015-Jul-23 23:33N 40°42' W 074°02'4 3.9
2015-Jul-23 22:33N 40°46' W 074°00'0 0.0
2015-Jul-23 21:33N 40°46' W 074°00'0 0.0
2015-Jul-23 20:33N 40°46' W 074°00'0 0.3
2015-Jul-23 19:33N 40°46' W 074°01'0 0.3
2015-Jul-23 18:33N 40°46' W 074°00'0 0.0
2015-Jul-23 17:30N 40°46' W 074°00'8 8.1
2015-Jul-23 16:34N 40°53' W 073°56'8 8.3
2015-Jul-23 15:33N 40°44' W 073°58'2 2.0
2015-Jul-23 14:31N 40°46' W 074°00'3 0.2
2015-Jul-23 00:33N 40°43' W 074°01'2 2.2
2015-Jul-22 23:33N 40°41' W 074°03'5 4.8
2015-Jul-22 22:33N 40°46' W 074°00'0 0.0
2015-Jul-22 21:33N 40°46' W 074°00'0 0.0
2015-Jul-22 20:33N 40°46' W 074°00'1 1.0
2015-Jul-22 19:33N 40°45' W 074°01'1 0.9
2015-Jul-22 18:32N 40°46' W 074°00'0 0.0
2015-Jul-22 17:32N 40°46' W 074°00'3 3.0
2015-Jul-22 16:33N 40°43' W 074°01'2 1.8
2015-Jul-22 15:34N 40°41' W 074°02'5 4.5
2015-Jul-22 14:31N 40°46' W 074°00'0 0.0
2015-Jul-22 13:31N 40°46' W 074°00'0 0.0
2015-Jul-22 12:31N 40°46' W 074°00'0 0.0
2015-Jul-22 11:31N 40°46' W 074°00'1 0.0
2015-Jul-20 21:33N 40°45' W 074°01'1 0.9
2015-Jul-20 20:31N 40°46' W 074°00'0 0.0
2015-Jul-20 19:34N 40°46' W 074°00'  

Dump ship's entire track history